Time;durP1;ratioP1;P1;durP2;ratioP2;P2;SDS_P1;SDS_P2;PMS_P1;PMS_P2;Temp;Humidity;BMP_temperature;BMP_pressure;BME280_temperature;BME280_humidity;BME280_pressure;Samples;Min_cycle;Max_cycle;Signal;HPM_P1;HPM_P2
2022/12/22 03:25:55;;;;;;;;;;;8.00;99.90;;;;;;5041502;28;19950;-83
2022/12/22 03:28:22;;;;;;;;;;;8.00;99.90;;;;;;5023504;28;19932;-83
2022/12/22 03:30:54;;;;;;;;;;;8.10;99.90;;;;;;5041089;28;20329;-83
2022/12/22 03:33:20;;;;;;;;;;;8.00;99.90;;;;;;5037286;28;19928;-83
2022/12/22 03:35:46;;;;;;;;;;;8.00;99.90;;;;;;5003622;28;19929;-83
2022/12/22 03:38:11;;;;;;;;;;;8.00;99.90;;;;;;5036104;28;19928;-82
2022/12/22 03:40:37;;;;;;;;;;;8.00;99.90;;;;;;5021106;28;19921;-83
2022/12/22 03:49:11;;;;;;;;;;;8.10;99.90;;;;;;4935376;29;19923;-83
2022/12/22 03:51:38;;;;;;;;;;;8.00;99.90;;;;;;5010888;28;19925;-83
2022/12/22 03:54:04;;;;;;;;;;;8.10;99.90;;;;;;5034292;28;19921;-83
2022/12/22 03:56:30;;;;;;;;;;;8.10;99.90;;;;;;5019919;28;19920;-83
2022/12/22 03:58:55;;;;;;;;;;;8.10;99.90;;;;;;5020003;28;19931;-83
2022/12/22 04:01:21;;;;;;;;;;;8.10;99.90;;;;;;5003849;28;19932;-83
2022/12/22 04:03:47;;;;;;;;;;;8.10;99.90;;;;;;5036918;28;19920;-82
2022/12/22 04:06:13;;;;;;;;;;;8.10;99.90;;;;;;5019832;28;20439;-83
2022/12/22 04:08:38;;;;;;;;;;;8.10;99.90;;;;;;5036471;28;19929;-83
2022/12/22 04:13:48;;;;;;;;;;;8.10;99.90;;;;;;5021724;28;19927;-82
2022/12/22 04:16:13;;;;;;;;;;;8.10;99.90;;;;;;5020016;28;19921;-82
2022/12/22 04:18:39;;;;;;;;;;;8.10;99.90;;;;;;5019118;28;19936;-83
2022/12/22 04:21:05;;;;;;;;;;;8.10;99.90;;;;;;5036213;28;19967;-83
2022/12/22 04:23:30;;;;;;;;;;;8.10;99.90;;;;;;5034699;28;19921;-83
2022/12/22 04:25:56;;;;;;;;;;;8.10;99.90;;;;;;5035264;28;19929;-83
2022/12/22 04:28:21;;;;;;;;;;;8.10;99.90;;;;;;5036106;28;19951;-83
2022/12/22 04:30:50;;;;;;;;;;;8.10;99.90;;;;;;5036087;28;19920;-83
2022/12/22 04:33:16;;;;;;;;;;;8.10;99.90;;;;;;5035070;28;19928;-83
2022/12/22 04:35:42;;;;;;;;;;;8.10;99.90;;;;;;5003922;28;19925;-83
2022/12/22 04:38:07;;;;;;;;;;;8.10;99.90;;;;;;5032130;28;20004;-83
2022/12/22 04:40:33;;;;;;;;;;;8.10;99.90;;;;;;5051779;28;20467;-83
2022/12/22 04:42:58;;;;;;;;;;;8.10;99.90;;;;;;5002866;28;19936;-83
2022/12/22 04:45:24;;;;;;;;;;;8.10;99.90;;;;;;5034628;28;19924;-82
2022/12/22 04:47:49;;;;;;;;;;;8.10;99.90;;;;;;5033239;28;19920;-83
2022/12/22 04:50:15;;;;;;;;;;;8.10;99.90;;;;;;5050143;28;20027;-83
2022/12/22 04:52:40;;;;;;;;;;;8.20;99.90;;;;;;5017788;28;19921;-83
2022/12/22 04:55:06;;;;;;;;;;;8.10;99.90;;;;;;5016902;28;19932;-83
2022/12/22 04:57:32;;;;;;;;;;;8.10;99.90;;;;;;5002107;28;19975;-83
2022/12/22 04:59:57;;;;;;;;;;;8.10;99.90;;;;;;5033378;28;19920;-83
2022/12/22 05:02:23;;;;;;;;;;;8.10;99.90;;;;;;5034867;28;19921;-82
2022/12/22 05:04:48;;;;;;;;;;;8.10;99.90;;;;;;5002348;28;19924;-82
2022/12/22 05:07:14;;;;;;;;;;;8.20;99.90;;;;;;5004003;28;20000;-83
2022/12/22 05:09:39;;;;;;;;;;;8.20;99.90;;;;;;5018571;28;19928;-83
2022/12/22 05:12:53;;;;;;;;;;;8.20;99.90;;;;;;5016927;28;20313;-83
2022/12/22 05:14:51;;;;;;;;;;;8.10;99.90;;;;;;5044797;28;19929;-83
2022/12/22 05:17:16;;;;;;;;;;;8.20;99.90;;;;;;5034254;28;19931;-83
2022/12/22 05:19:42;;;;;;;;;;;8.20;99.90;;;;;;5032585;28;19928;-83
2022/12/22 05:22:07;;;;;;;;;;;8.10;99.90;;;;;;5034865;28;19943;-82
2022/12/22 05:24:33;;;;;;;;;;;8.10;99.90;;;;;;5016571;28;19975;-82
2022/12/22 05:26:59;;;;;;;;;;;8.10;99.90;;;;;;5018532;28;19921;-83
2022/12/22 05:29:24;;;;;;;;;;;8.10;99.90;;;;;;5032396;28;19925;-83
2022/12/22 05:31:50;;;;;;;;;;;8.10;99.90;;;;;;5018478;28;20416;-82
2022/12/22 05:34:15;;;;;;;;;;;8.10;99.90;;;;;;4999755;28;20301;-83
2022/12/22 05:36:42;;;;;;;;;;;8.10;99.90;;;;;;5018136;28;19975;-83
2022/12/22 05:39:07;;;;;;;;;;;8.10;99.90;;;;;;5034421;28;19920;-83
2022/12/22 05:41:33;;;;;;;;;;;8.10;99.90;;;;;;5017548;28;19920;-83
2022/12/22 05:43:58;;;;;;;;;;;8.10;99.90;;;;;;4999926;28;20394;-83
2022/12/22 05:46:24;;;;;;;;;;;8.10;99.90;;;;;;5050300;28;19948;-82
2022/12/22 05:48:50;;;;;;;;;;;8.10;99.90;;;;;;5016573;28;20007;-83
2022/12/22 05:51:15;;;;;;;;;;;8.10;99.90;;;;;;5000871;28;19989;-83
2022/12/22 05:53:42;;;;;;;;;;;8.10;99.90;;;;;;5022543;28;19924;-83
2022/12/22 05:56:07;;;;;;;;;;;8.10;99.90;;;;;;5038346;28;19931;-82
2022/12/22 05:58:33;;;;;;;;;;;8.10;99.90;;;;;;5006618;28;19921;-82
2022/12/22 06:00:59;;;;;;;;;;;8.00;99.90;;;;;;5024461;28;19963;-83
2022/12/22 06:03:26;;;;;;;;;;;8.10;99.90;;;;;;5040552;28;19921;-83
2022/12/22 06:05:51;;;;;;;;;;;8.00;99.90;;;;;;5042812;28;19939;-83
2022/12/22 06:08:17;;;;;;;;;;;8.00;99.90;;;;;;5024188;28;19920;-83
2022/12/22 06:10:42;;;;;;;;;;;8.00;99.90;;;;;;5053856;28;19982;-83
2022/12/22 06:13:08;;;;;;;;;;;8.00;99.90;;;;;;5057102;28;19921;-82
2022/12/22 06:15:34;;;;;;;;;;;8.00;99.90;;;;;;5024952;28;19968;-83
2022/12/22 06:17:59;;;;;;;;;;;8.00;99.90;;;;;;5030457;28;19927;-82
2022/12/22 06:20:25;;;;;;;;;;;8.10;99.90;;;;;;5024200;28;19924;-83
2022/12/22 06:22:50;;;;;;;;;;;8.10;99.90;;;;;;5024467;28;19921;-83
2022/12/22 06:25:16;;;;;;;;;;;8.10;99.90;;;;;;5034797;28;19937;-83
2022/12/22 06:27:41;;;;;;;;;;;8.00;99.90;;;;;;5056500;28;19960;-82
2022/12/22 06:30:07;;;;;;;;;;;8.00;99.90;;;;;;5008027;28;20360;-82
2022/12/22 06:32:36;;;;;;;;;;;8.10;99.90;;;;;;5005730;28;19964;-82
2022/12/22 06:35:03;;;;;;;;;;;8.10;99.90;;;;;;5021904;28;19960;-82
2022/12/22 06:37:28;;;;;;;;;;;8.00;99.90;;;;;;5024141;28;19920;-83
2022/12/22 06:39:54;;;;;;;;;;;8.10;99.90;;;;;;5009099;28;19927;-83
2022/12/22 06:45:04;;;;;;;;;;;8.10;99.90;;;;;;5022600;28;20015;-83
2022/12/22 06:47:29;;;;;;;;;;;8.10;99.90;;;;;;5020219;28;19959;-83
2022/12/22 06:49:55;;;;;;;;;;;8.00;99.90;;;;;;5020800;28;20338;-83
2022/12/22 06:52:21;;;;;;;;;;;8.00;99.90;;;;;;5004598;28;20410;-83
2022/12/22 06:54:46;;;;;;;;;;;8.00;99.90;;;;;;5019065;28;19979;-83
2022/12/22 06:57:12;;;;;;;;;;;8.00;99.90;;;;;;5018255;28;19921;-84
2022/12/22 06:59:38;;;;;;;;;;;8.00;99.90;;;;;;5017254;28;20413;-83
2022/12/22 07:02:04;;;;;;;;;;;8.00;99.90;;;;;;5049081;28;19967;-84
2022/12/22 07:04:30;;;;;;;;;;;8.00;99.90;;;;;;5016941;28;19947;-83
2022/12/22 07:06:56;;;;;;;;;;;8.00;99.90;;;;;;5049074;28;19925;-83
2022/12/22 07:09:21;;;;;;;;;;;8.00;99.90;;;;;;5018260;28;19967;-82
2022/12/22 07:11:47;;;;;;;;;;;8.00;99.90;;;;;;5036116;28;19937;-81
2022/12/22 07:14:12;;;;;;;;;;;7.90;99.90;;;;;;5034176;28;19935;-82
2022/12/22 07:16:38;;;;;;;;;;;7.90;99.90;;;;;;5035628;28;19927;-82
2022/12/22 07:19:04;;;;;;;;;;;7.90;99.90;;;;;;5031578;28;20259;-82
2022/12/22 07:21:29;;;;;;;;;;;7.80;99.90;;;;;;5034538;28;19943;-83
2022/12/22 07:23:55;;;;;;;;;;;7.80;99.90;;;;;;5004953;28;19971;-82
2022/12/22 07:26:20;;;;;;;;;;;7.80;99.90;;;;;;5036305;28;19971;-82
2022/12/22 07:28:46;;;;;;;;;;;7.80;99.90;;;;;;5016934;28;19951;-84
2022/12/22 07:31:14;;;;;;;;;;;7.80;99.90;;;;;;5041231;28;20616;-82
2022/12/22 07:33:40;;;;;;;;;;;7.80;99.90;;;;;;5031414;28;19931;-82
2022/12/22 07:36:16;;;;;;;;;;;7.70;99.90;;;;;;5029359;28;19921;-83
2022/12/22 07:38:43;;;;;;;;;;;7.70;99.90;;;;;;5034398;28;19927;-82
2022/12/22 07:43:54;;;;;;;;;;;7.60;99.90;;;;;;5023735;28;19920;-82
2022/12/22 07:46:20;;;;;;;;;;;7.60;99.90;;;;;;5020991;28;20263;-82
2022/12/22 07:51:34;;;;;;;;;;;7.50;99.90;;;;;;5023698;28;19925;-82
2022/12/22 07:53:59;;;;;;;;;;;7.40;99.90;;;;;;5037596;28;19928;-82
2022/12/22 07:56:25;;;;;;;;;;;7.40;99.90;;;;;;5037119;28;20325;-82
2022/12/22 07:58:50;;;;;;;;;;;7.30;99.90;;;;;;5003868;28;20378;-83
2022/12/22 08:01:16;;;;;;;;;;;7.20;99.90;;;;;;5034665;28;20426;-83
2022/12/22 08:03:42;;;;;;;;;;;7.10;99.90;;;;;;5036579;28;20145;-82
2022/12/22 08:06:07;;;;;;;;;;;7.10;99.90;;;;;;5019447;28;19933;-83
2022/12/22 08:08:33;;;;;;;;;;;7.00;99.90;;;;;;5035650;28;19921;-83
2022/12/22 08:11:02;;;;;;;;;;;6.90;99.90;;;;;;5018460;28;19920;-83
2022/12/22 08:13:28;;;;;;;;;;;6.90;99.90;;;;;;5002764;28;19974;-82
2022/12/22 08:15:53;;;;;;;;;;;6.90;99.90;;;;;;5034814;28;19921;-83
2022/12/22 08:18:19;;;;;;;;;;;6.80;99.90;;;;;;5018894;28;19979;-83
2022/12/22 08:20:49;;;;;;;;;;;6.80;99.90;;;;;;5020548;28;19924;-82
2022/12/22 08:23:15;;;;;;;;;;;6.80;99.90;;;;;;5021659;28;19920;-83
2022/12/22 08:25:40;;;;;;;;;;;6.80;99.90;;;;;;5022741;28;20374;-84
2022/12/22 08:28:06;;;;;;;;;;;6.80;99.90;;;;;;5037918;28;20021;-83
2022/12/22 08:30:32;;;;;;;;;;;6.70;99.90;;;;;;5007699;28;19920;-83
2022/12/22 08:32:57;;;;;;;;;;;6.80;99.90;;;;;;5057115;28;19928;-83
2022/12/22 08:35:23;;;;;;;;;;;6.80;99.90;;;;;;5024489;28;19924;-83
2022/12/22 08:37:49;;;;;;;;;;;6.90;99.90;;;;;;5017261;28;19923;-82
2022/12/22 08:40:18;;;;;;;;;;;7.00;99.90;;;;;;5042752;28;19921;-82
2022/12/22 08:42:44;;;;;;;;;;;7.00;99.90;;;;;;5040676;28;19908;-82
2022/12/22 08:45:10;;;;;;;;;;;7.00;99.90;;;;;;5037667;28;20206;-82
2022/12/22 08:47:35;;;;;;;;;;;7.10;99.90;;;;;;5023165;28;19928;-82
2022/12/22 08:50:01;;;;;;;;;;;7.10;99.90;;;;;;5040009;28;20413;-83
2022/12/22 08:52:27;;;;;;;;;;;7.10;99.90;;;;;;5071765;28;19921;-82
2022/12/22 08:54:52;;;;;;;;;;;7.10;99.90;;;;;;5006350;28;19967;-83
2022/12/22 08:57:18;;;;;;;;;;;7.10;99.90;;;;;;5037718;28;19944;-82
2022/12/22 08:59:43;;;;;;;;;;;7.10;99.90;;;;;;5020450;28;19996;-82
2022/12/22 09:02:09;;;;;;;;;;;7.00;99.90;;;;;;5018801;28;19928;-83
2022/12/22 09:04:35;;;;;;;;;;;7.00;99.90;;;;;;5021200;28;19940;-82
2022/12/22 09:07:04;;;;;;;;;;;7.00;99.90;;;;;;5020419;28;20012;-82
2022/12/22 09:09:30;;;;;;;;;;;6.90;99.90;;;;;;5004009;28;19921;-82
2022/12/22 09:11:55;;;;;;;;;;;6.90;99.90;;;;;;5019426;28;19928;-82
2022/12/22 09:14:21;;;;;;;;;;;6.90;99.90;;;;;;5003242;28;19978;-83
2022/12/22 09:16:47;;;;;;;;;;;6.80;99.90;;;;;;5019518;28;19921;-83
2022/12/22 09:19:13;;;;;;;;;;;6.80;99.90;;;;;;5003817;28;19968;-83
2022/12/22 09:21:38;;;;;;;;;;;6.70;99.90;;;;;;5003761;28;19979;-83
2022/12/22 09:24:06;;;;;;;;;;;6.70;99.90;;;;;;5020616;28;19921;-83
2022/12/22 09:26:31;;;;;;;;;;;6.60;99.90;;;;;;5019888;28;19920;-82
2022/12/22 09:28:57;;;;;;;;;;;6.60;99.90;;;;;;5003360;28;19920;-83
2022/12/22 09:31:23;;;;;;;;;;;6.60;99.90;;;;;;5003528;28;19925;-83
2022/12/22 09:33:49;;;;;;;;;;;6.60;99.90;;;;;;5020434;28;20417;-82
2022/12/22 09:36:16;;;;;;;;;;;6.50;99.90;;;;;;5019752;28;19956;-83
2022/12/22 09:38:42;;;;;;;;;;;6.50;99.90;;;;;;5036102;28;19921;-83
2022/12/22 09:41:17;;;;;;;;;;;6.40;99.90;;;;;;5017541;28;19920;-83
2022/12/22 09:43:42;;;;;;;;;;;6.40;99.90;;;;;;5035752;28;20010;-83
2022/12/22 09:46:20;;;;;;;;;;;6.40;99.90;;;;;;5036638;28;19967;-82
2022/12/22 09:48:45;;;;;;;;;;;6.40;99.90;;;;;;5035172;28;20542;-82
2022/12/22 09:51:12;;;;;;;;;;;6.40;99.90;;;;;;5036649;28;19925;-82
2022/12/22 09:53:37;;;;;;;;;;;6.40;99.90;;;;;;5051359;28;19924;-83
2022/12/22 09:56:03;;;;;;;;;;;6.40;99.90;;;;;;5036063;28;19921;-82
2022/12/22 09:58:33;;;;;;;;;;;6.40;99.90;;;;;;5019738;28;19925;-82
2022/12/22 10:01:06;;;;;;;;;;;6.40;99.90;;;;;;5036686;28;19925;-83
2022/12/22 10:03:46;;;;;;;;;;;6.30;99.90;;;;;;5019491;28;19921;-83
2022/12/22 10:06:19;;;;;;;;;;;6.30;99.90;;;;;;5035098;28;20419;-83
2022/12/22 10:08:45;;;;;;;;;;;6.30;99.90;;;;;;5019425;28;20526;-82
2022/12/22 10:11:16;;;;;;;;;;;6.30;99.90;;;;;;5035137;28;20008;-82
2022/12/22 10:13:42;;;;;;;;;;;6.30;99.90;;;;;;5068264;28;19927;-82
2022/12/22 10:16:16;;;;;;;;;;;6.40;99.90;;;;;;5002719;28;20301;-82
2022/12/22 10:18:52;;;;;;;;;;;6.40;99.90;;;;;;5017737;28;20294;-82
2022/12/22 10:21:21;;;;;;;;;;;6.40;99.90;;;;;;5018277;28;19928;-82
2022/12/22 10:23:47;;;;;;;;;;;6.40;99.90;;;;;;5020048;28;19925;-82
2022/12/22 10:26:12;;;;;;;;;;;6.50;99.90;;;;;;5035107;28;19971;-82
2022/12/22 10:28:42;;;;;;;;;;;6.50;99.90;;;;;;5020119;28;19928;-82
2022/12/22 10:31:09;;;;;;;;;;;6.60;99.90;;;;;;5035063;28;20024;-83
2022/12/22 10:33:35;;;;;;;;;;;6.70;99.90;;;;;;5019821;28;20022;-83
2022/12/22 10:36:00;;;;;;;;;;;6.70;99.90;;;;;;5018491;28;20280;-82
2022/12/22 10:38:29;;;;;;;;;;;6.60;99.90;;;;;;5021563;28;19924;-82
2022/12/22 10:40:56;;;;;;;;;;;6.60;99.90;;;;;;5023239;28;19982;-82
2022/12/22 10:43:23;;;;;;;;;;;6.60;99.90;;;;;;5022851;28;20293;-82
2022/12/22 10:45:50;;;;;;;;;;;6.60;99.90;;;;;;5038799;28;20004;-82
2022/12/22 10:48:16;;;;;;;;;;;6.70;99.90;;;;;;5007199;28;19920;-82
2022/12/22 10:50:46;;;;;;;;;;;6.60;99.90;;;;;;5005601;28;20458;-83
2022/12/22 10:53:12;;;;;;;;;;;6.60;99.90;;;;;;5056752;28;19925;-82
2022/12/22 10:55:38;;;;;;;;;;;6.60;99.90;;;;;;5006341;28;20005;-82
2022/12/22 10:58:09;;;;;;;;;;;6.60;99.90;;;;;;5022844;28;19921;-82
2022/12/22 11:00:36;;;;;;;;;;;6.60;99.90;;;;;;5018702;28;19945;-82
2022/12/22 11:03:03;;;;;;;;;;;6.70;99.90;;;;;;5036809;28;19940;-82
2022/12/22 11:05:28;;;;;;;;;;;6.80;99.90;;;;;;5037992;28;19928;-82
2022/12/22 11:07:54;;;;;;;;;;;6.80;99.90;;;;;;5023348;28;20409;-82
2022/12/22 11:10:20;;;;;;;;;;;6.70;99.90;;;;;;5040140;28;19980;-82
2022/12/22 11:13:04;;;;;;;;;;;6.70;99.90;;;;;;5039601;28;19928;-82
2022/12/22 11:15:30;;;;;;;;;;;6.70;99.90;;;;;;5070581;28;20002;-82
2022/12/22 11:18:19;;;;;;;;;;;6.80;99.90;;;;;;5022913;28;19921;-82
2022/12/22 11:20:49;;;;;;;;;;;6.80;99.90;;;;;;5020155;28;19921;-82
2022/12/22 11:23:33;;;;;;;;;;;6.80;99.90;;;;;;5021291;28;19927;-82
2022/12/22 11:26:09;;;;;;;;;;;6.70;99.90;;;;;;5069712;28;19925;-83
2022/12/22 11:28:35;;;;;;;;;;;6.70;99.90;;;;;;5072093;28;19920;-82
2022/12/22 11:31:10;;;;;;;;;;;6.60;99.90;;;;;;5021800;28;20385;-83
2022/12/22 11:33:49;;;;;;;;;;;6.70;99.90;;;;;;5022045;28;19921;-82
2022/12/22 11:36:21;;;;;;;;;;;6.70;99.90;;;;;;5038980;28;20320;-83
2022/12/22 11:38:57;;;;;;;;;;;6.80;99.90;;;;;;5040657;28;19928;-82
2022/12/22 11:41:52;;;;;;;;;;;6.70;99.90;;;;;;5024593;28;20381;-83
2022/12/22 11:44:34;;;;;;;;;;;6.60;99.90;;;;;;5014735;28;19933;-81
2022/12/22 11:47:03;;;;;;;;;;;6.70;99.90;;;;;;5020748;28;19920;-82
2022/12/22 11:49:43;;;;;;;;;;;6.70;99.90;;;;;;5035980;28;19940;-81
2022/12/22 11:52:19;;;;;;;;;;;6.60;99.90;;;;;;5038257;28;19928;-82
2022/12/22 11:54:58;;;;;;;;;;;6.60;99.90;;;;;;5022177;28;19921;-81
2022/12/22 11:57:24;;;;;;;;;;;6.60;99.90;;;;;;5038273;28;20037;-81
2022/12/22 12:00:10;;;;;;;;;;;6.60;99.90;;;;;;5039433;28;19921;-81
2022/12/22 12:03:00;;;;;;;;;;;6.70;99.90;;;;;;5022591;28;19925;-81
2022/12/22 12:05:44;;;;;;;;;;;6.80;99.90;;;;;;5021889;28;20416;-82
2022/12/22 12:08:37;;;;;;;;;;;6.80;99.90;;;;;;5069805;28;19942;-81
2022/12/22 12:11:19;;;;;;;;;;;6.80;99.90;;;;;;5022696;28;20378;-82
2022/12/22 12:13:52;;;;;;;;;;;6.80;99.90;;;;;;5055014;28;20275;-81
2022/12/22 12:16:53;;;;;;;;;;;6.90;99.90;;;;;;5023101;28;19943;-81
2022/12/22 12:19:25;;;;;;;;;;;6.90;99.90;;;;;;4997189;28;19929;-81
2022/12/22 12:21:52;;;;;;;;;;;7.00;99.90;;;;;;5030516;28;19928;-82
2022/12/22 12:24:21;;;;;;;;;;;7.00;99.90;;;;;;5038348;28;19995;-82
2022/12/22 12:26:46;;;;;;;;;;;7.10;99.90;;;;;;5022819;28;19932;-82
2022/12/22 12:29:15;;;;;;;;;;;7.20;99.90;;;;;;5022293;28;19920;-82
2022/12/22 12:31:43;;;;;;;;;;;7.30;99.90;;;;;;5039807;28;19921;-82
2022/12/22 12:34:11;;;;;;;;;;;7.40;99.90;;;;;;5023484;28;19928;-81
2022/12/22 12:36:40;;;;;;;;;;;7.50;99.90;;;;;;5039478;28;20463;-82
2022/12/22 12:39:05;;;;;;;;;;;7.60;99.90;;;;;;5023277;28;19921;-82
2022/12/22 12:41:37;;;;;;;;;;;7.70;99.90;;;;;;5022920;28;21183;-82
2022/12/22 12:44:03;;;;;;;;;;;7.70;99.90;;;;;;5022290;28;19924;-82
2022/12/22 12:46:52;;;;;;;;;;;7.80;99.90;;;;;;5007023;28;19927;-82
2022/12/22 12:49:32;;;;;;;;;;;7.90;99.90;;;;;;5012603;28;20193;-82
2022/12/22 12:52:00;;;;;;;;;;;7.90;99.90;;;;;;5022296;28;20361;-82
2022/12/22 12:54:25;;;;;;;;;;;8.00;99.90;;;;;;5072493;28;19921;-82
2022/12/22 12:56:59;;;;;;;;;;;8.00;99.90;;;;;;5038740;28;19920;-81
2022/12/22 12:59:39;;;;;;;;;;;8.10;99.90;;;;;;5022812;28;20012;-82
2022/12/22 13:02:24;;;;;;;;;;;8.20;99.90;;;;;;5022313;28;19935;-82
2022/12/22 13:05:11;;;;;;;;;;;8.20;99.90;;;;;;5067132;28;19925;-82
2022/12/22 13:07:55;;;;;;;;;;;8.20;99.90;;;;;;5039529;28;19939;-82
2022/12/22 13:10:23;;;;;;;;;;;8.30;99.90;;;;;;5038416;28;19924;-82
2022/12/22 13:12:50;;;;;;;;;;;8.40;99.90;;;;;;5072813;28;19920;-82
2022/12/22 13:15:26;;;;;;;;;;;8.40;99.90;;;;;;5038747;28;19921;-82
2022/12/22 13:17:52;;;;;;;;;;;8.50;99.90;;;;;;5036354;28;19920;-82
2022/12/22 13:20:24;;;;;;;;;;;8.50;99.90;;;;;;5038390;28;19927;-83
2022/12/22 13:22:51;;;;;;;;;;;8.50;99.90;;;;;;5023845;28;19920;-82
2022/12/22 13:25:17;;;;;;;;;;;8.40;99.90;;;;;;5021895;28;20024;-82
2022/12/22 13:27:42;;;;;;;;;;;8.30;99.90;;;;;;5021724;28;19921;-82
2022/12/22 13:30:13;;;;;;;;;;;8.40;99.90;;;;;;5005639;28;19936;-82
2022/12/22 13:32:39;;;;;;;;;;;8.40;99.90;;;;;;5022320;28;19920;-82
2022/12/22 13:35:05;;;;;;;;;;;8.40;99.90;;;;;;5020471;28;19928;-81
2022/12/22 13:37:37;;;;;;;;;;;8.40;99.90;;;;;;5038117;28;19921;-82
2022/12/22 13:40:04;;;;;;;;;;;8.40;99.90;;;;;;5021669;28;19928;-82
2022/12/22 13:42:29;;;;;;;;;;;8.40;99.90;;;;;;5023001;28;19921;-82
2022/12/22 13:44:55;;;;;;;;;;;8.40;99.90;;;;;;5022580;28;20382;-82
2022/12/22 13:47:21;;;;;;;;;;;8.40;99.90;;;;;;5022262;28;20035;-82
2022/12/22 13:49:47;;;;;;;;;;;8.50;99.90;;;;;;5022362;28;19936;-82
2022/12/22 13:52:14;;;;;;;;;;;8.50;99.90;;;;;;5022449;28;19992;-82
2022/12/22 13:54:45;;;;;;;;;;;8.50;99.90;;;;;;5022038;28;19928;-82
2022/12/22 13:57:13;;;;;;;;;;;8.40;99.90;;;;;;5022936;28;19974;-82
2022/12/22 13:59:39;;;;;;;;;;;8.40;99.90;;;;;;5041141;28;20000;-81
2022/12/22 14:02:08;;;;;;;;;;;8.40;99.90;;;;;;5040937;28;20053;-82
2022/12/22 14:04:35;;;;;;;;;;;8.30;99.90;;;;;;5040972;28;19987;-82
2022/12/22 14:07:17;;;;;;;;;;;8.30;99.90;;;;;;5026071;28;19927;-82
2022/12/22 14:09:47;;;;;;;;;;;8.20;99.90;;;;;;5057827;28;20346;-82
2022/12/22 14:12:23;;;;;;;;;;;8.20;99.90;;;;;;5025576;28;19927;-82
2022/12/22 14:14:50;;;;;;;;;;;8.20;99.90;;;;;;5028937;28;19960;-82
2022/12/22 14:17:24;;;;;;;;;;;8.20;99.90;;;;;;5045770;28;20414;-82
2022/12/22 14:19:51;;;;;;;;;;;8.00;99.90;;;;;;5039806;28;19943;-82
2022/12/22 14:22:18;;;;;;;;;;;8.00;99.90;;;;;;5022703;28;19925;-82
2022/12/22 14:24:46;;;;;;;;;;;7.90;99.90;;;;;;5035810;28;19968;-81
2022/12/22 14:27:17;;;;;;;;;;;7.90;99.90;;;;;;5035729;28;19920;-84
2022/12/22 14:29:43;;;;;;;;;;;7.80;99.90;;;;;;5066056;28;19921;-81
2022/12/22 14:32:11;;;;;;;;;;;7.80;99.90;;;;;;5013340;28;20002;-82
2022/12/22 14:34:37;;;;;;;;;;;7.70;99.90;;;;;;5012308;28;19936;-81
2022/12/22 14:37:02;;;;;;;;;;;7.70;99.90;;;;;;5060931;28;19920;-81
2022/12/22 14:39:30;;;;;;;;;;;7.70;99.90;;;;;;5024188;28;20251;-81
2022/12/22 14:41:57;;;;;;;;;;;7.70;99.90;;;;;;5011673;28;19925;-82
2022/12/22 14:44:31;;;;;;;;;;;7.70;99.90;;;;;;5029816;28;19929;-80
2022/12/22 14:46:59;;;;;;;;;;;7.60;99.90;;;;;;5011801;28;20393;-83
2022/12/22 14:49:25;;;;;;;;;;;7.70;99.90;;;;;;5012054;28;19933;-82
2022/12/22 14:51:52;;;;;;;;;;;7.70;99.90;;;;;;5014189;28;19924;-81
2022/12/22 14:54:20;;;;;;;;;;;7.70;99.90;;;;;;5046855;28;20389;-82
2022/12/22 14:56:50;;;;;;;;;;;7.70;99.90;;;;;;5029358;28;19929;-82
2022/12/22 14:59:26;;;;;;;;;;;7.70;99.90;;;;;;5028385;28;19929;-80
2022/12/22 15:01:59;;;;;;;;;;;7.70;99.90;;;;;;5026563;28;20388;-81
2022/12/22 15:04:25;;;;;;;;;;;7.70;99.90;;;;;;5012272;28;20382;-81
2022/12/22 15:07:02;;;;;;;;;;;7.60;99.90;;;;;;5026413;28;19924;-81
2022/12/22 15:09:28;;;;;;;;;;;7.70;99.90;;;;;;5058109;28;19928;-81
2022/12/22 15:12:05;;;;;;;;;;;7.60;99.90;;;;;;5025971;28;19975;-81
2022/12/22 15:14:33;;;;;;;;;;;7.60;99.90;;;;;;5060110;28;19966;-82
2022/12/22 15:17:00;;;;;;;;;;;7.70;99.90;;;;;;5009747;28;20428;-81
2022/12/22 15:19:28;;;;;;;;;;;7.60;99.90;;;;;;5043433;28;19929;-77
2022/12/22 15:21:53;;;;;;;;;;;7.60;99.90;;;;;;5026692;28;20608;-78
2022/12/22 15:24:19;;;;;;;;;;;7.60;99.90;;;;;;5024946;28;20036;-79
2022/12/22 15:26:45;;;;;;;;;;;7.50;99.90;;;;;;5009728;28;19935;-84
2022/12/22 15:29:10;;;;;;;;;;;7.50;99.90;;;;;;5026173;28;20346;-81
2022/12/22 15:31:37;;;;;;;;;;;7.50;99.90;;;;;;5044001;28;19974;-80
2022/12/22 15:34:03;;;;;;;;;;;7.40;99.90;;;;;;5010672;28;20317;-79
2022/12/22 15:36:29;;;;;;;;;;;7.40;99.90;;;;;;5009228;28;19929;-79
2022/12/22 15:38:55;;;;;;;;;;;7.50;99.90;;;;;;4993830;28;19935;-80
2022/12/22 15:41:20;;;;;;;;;;;7.40;99.90;;;;;;5011554;28;19928;-80
2022/12/22 15:43:46;;;;;;;;;;;7.40;99.90;;;;;;5012373;28;20634;-81
2022/12/22 15:46:15;;;;;;;;;;;7.30;99.90;;;;;;5012132;28;19992;-81
2022/12/22 15:48:41;;;;;;;;;;;7.30;99.90;;;;;;5015768;28;19928;-81
2022/12/22 15:51:12;;;;;;;;;;;7.30;99.90;;;;;;5019202;28;19947;-81
2022/12/22 15:53:38;;;;;;;;;;;7.40;99.90;;;;;;5018390;28;19925;-81
2022/12/22 15:56:04;;;;;;;;;;;7.30;99.90;;;;;;5035296;28;19921;-82
2022/12/22 15:58:31;;;;;;;;;;;7.30;99.90;;;;;;5018271;28;19920;-81
2022/12/22 16:00:56;;;;;;;;;;;7.30;99.90;;;;;;5016187;28;19929;-81
2022/12/22 16:03:22;;;;;;;;;;;7.30;99.90;;;;;;5040962;28;20463;-82
2022/12/22 16:05:47;;;;;;;;;;;7.30;99.90;;;;;;5035955;28;19947;-82
2022/12/22 16:08:19;;;;;;;;;;;7.30;99.90;;;;;;5037280;28;19925;-81
2022/12/22 16:10:45;;;;;;;;;;;7.30;99.90;;;;;;5036198;28;19928;-80
2022/12/22 16:13:12;;;;;;;;;;;7.20;99.90;;;;;;5018808;28;19924;-81
2022/12/22 16:15:38;;;;;;;;;;;7.30;99.90;;;;;;5038325;28;20050;-81
2022/12/22 16:18:04;;;;;;;;;;;7.30;99.90;;;;;;5035335;28;19960;-81
2022/12/22 16:20:31;;;;;;;;;;;7.30;99.90;;;;;;5018571;28;19925;-81
2022/12/22 16:22:57;;;;;;;;;;;7.30;99.90;;;;;;5032978;28;19960;-82
2022/12/22 16:25:29;;;;;;;;;;;7.30;99.90;;;;;;5033867;28;19929;-81
2022/12/22 16:27:54;;;;;;;;;;;7.30;99.90;;;;;;5032637;28;20019;-81
2022/12/22 16:30:22;;;;;;;;;;;7.30;99.90;;;;;;5032740;28;19988;-81
2022/12/22 16:32:47;;;;;;;;;;;7.30;99.90;;;;;;5031466;28;19920;-81
2022/12/22 16:35:14;;;;;;;;;;;7.30;99.90;;;;;;5015774;28;20443;-81
2022/12/22 16:37:39;;;;;;;;;;;7.30;99.90;;;;;;5066060;28;19921;-81
2022/12/22 16:40:05;;;;;;;;;;;7.30;99.90;;;;;;5015226;28;19974;-82
2022/12/22 16:42:31;;;;;;;;;;;7.30;99.90;;;;;;5032724;28;20397;-81
2022/12/22 16:44:57;;;;;;;;;;;7.30;99.90;;;;;;5032559;28;19976;-81
2022/12/22 16:47:27;;;;;;;;;;;7.30;99.90;;;;;;5033317;28;19936;-81
2022/12/22 16:49:53;;;;;;;;;;;7.30;99.90;;;;;;5032099;28;19929;-83
2022/12/22 16:52:21;;;;;;;;;;;7.30;99.90;;;;;;5030866;28;19927;-82
2022/12/22 16:54:47;;;;;;;;;;;7.30;99.90;;;;;;5035177;28;19936;-82
2022/12/22 16:57:13;;;;;;;;;;;7.30;99.90;;;;;;5034565;28;19925;-82
2022/12/22 16:59:39;;;;;;;;;;;7.30;99.90;;;;;;5034033;28;19921;-82
2022/12/22 17:02:10;;;;;;;;;;;7.30;99.90;;;;;;5034092;28;20366;-82
2022/12/22 17:04:36;;;;;;;;;;;7.30;99.90;;;;;;5036585;28;19932;-82
2022/12/22 17:07:02;;;;;;;;;;;7.30;99.90;;;;;;5022195;28;19982;-82
2022/12/22 17:09:32;;;;;;;;;;;7.20;99.90;;;;;;5070325;28;19929;-82
2022/12/22 17:11:59;;;;;;;;;;;7.20;99.90;;;;;;5020228;28;19929;-82
2022/12/22 17:14:25;;;;;;;;;;;7.20;99.90;;;;;;5020997;28;19921;-83
2022/12/22 17:16:52;;;;;;;;;;;7.20;99.90;;;;;;5020920;28;19921;-83
2022/12/22 17:19:17;;;;;;;;;;;7.20;99.90;;;;;;5052654;28;19933;-83
2022/12/22 17:21:43;;;;;;;;;;;7.10;99.90;;;;;;5022839;28;20412;-84
2022/12/22 17:24:12;;;;;;;;;;;7.10;99.90;;;;;;5004993;28;19921;-83
2022/12/22 17:26:37;;;;;;;;;;;7.20;99.90;;;;;;5056727;28;19924;-82
2022/12/22 17:29:03;;;;;;;;;;;7.10;99.90;;;;;;5021982;28;19920;-82
2022/12/22 17:31:29;;;;;;;;;;;7.00;99.90;;;;;;5034179;28;19920;-82
2022/12/22 17:33:55;;;;;;;;;;;7.00;99.90;;;;;;5001738;28;19925;-82
2022/12/22 17:36:29;;;;;;;;;;;7.00;99.90;;;;;;5000474;28;20278;-83
2022/12/22 17:38:54;;;;;;;;;;;7.00;99.90;;;;;;5019811;28;19921;-84
2022/12/22 17:41:20;;;;;;;;;;;7.00;99.90;;;;;;5033633;28;19921;-83
2022/12/22 17:43:45;;;;;;;;;;;6.90;99.90;;;;;;5034503;28;19929;-82
2022/12/22 17:46:13;;;;;;;;;;;6.90;99.90;;;;;;5037198;28;19944;-82
2022/12/22 17:48:39;;;;;;;;;;;6.90;99.90;;;;;;5042530;28;19925;-82
2022/12/22 17:51:04;;;;;;;;;;;6.90;99.90;;;;;;5021325;28;20451;-82
2022/12/22 17:53:30;;;;;;;;;;;6.80;99.90;;;;;;5028520;28;19925;-82
2022/12/22 17:55:56;;;;;;;;;;;6.80;99.90;;;;;;5026646;28;19925;-82
2022/12/22 17:58:21;;;;;;;;;;;6.70;99.90;;;;;;5026364;28;20007;-82
2022/12/22 18:00:47;;;;;;;;;;;6.70;99.90;;;;;;5028570;28;19929;-83
2022/12/22 18:03:13;;;;;;;;;;;6.60;99.90;;;;;;5011999;28;19931;-83
2022/12/22 18:05:41;;;;;;;;;;;6.60;99.90;;;;;;5027081;28;19929;-82
2022/12/22 18:08:09;;;;;;;;;;;6.50;99.90;;;;;;5027136;28;19929;-82
2022/12/22 18:10:36;;;;;;;;;;;6.50;99.90;;;;;;5043152;28;19925;-83
2022/12/22 18:13:03;;;;;;;;;;;6.50;99.90;;;;;;5027284;28;19927;-82
2022/12/22 18:15:30;;;;;;;;;;;6.50;99.90;;;;;;5024776;28;19979;-83
2022/12/22 18:17:56;;;;;;;;;;;6.40;99.90;;;;;;5010065;28;19943;-83